createdAt,value
2022-10-05T00:00:53.283Z,10.88
2022-10-05T00:03:20.834Z,13.38
2022-10-05T00:05:47.283Z,10.07
2022-10-05T00:08:13.505Z,12.65
2022-10-05T00:10:41.349Z,13.05
2022-10-05T00:13:15.974Z,12.32
2022-10-05T00:15:43.003Z,10.02
2022-10-05T00:18:14.227Z,12.80
2022-10-05T00:20:40.908Z,10.85
2022-10-05T00:23:08.079Z,12.75
2022-10-05T00:25:34.284Z,11.18
2022-10-05T00:28:01.090Z,11.32
2022-10-05T00:30:32.196Z,9.73
2022-10-05T00:32:59.874Z,13.20
2022-10-05T00:35:28.133Z,11.27
2022-10-05T00:37:55.316Z,14.00
2022-10-05T00:40:35.249Z,10.07
2022-10-05T00:43:09.676Z,10.00
2022-10-05T00:45:37.898Z,10.05
2022-10-05T00:48:23.207Z,14.95
2022-10-05T00:50:59.421Z,11.50
2022-10-05T00:53:33.453Z,10.02
2022-10-05T00:56:03.916Z,10.73
2022-10-05T00:58:30.125Z,10.35
2022-10-05T01:00:56.372Z,12.07
2022-10-05T01:03:30.070Z,11.95
2022-10-05T01:06:22.410Z,10.27
2022-10-05T01:08:53.058Z,15.55
2022-10-05T01:11:26.797Z,10.67
2022-10-05T01:14:09.253Z,10.65
2022-10-05T01:16:51.901Z,9.60
2022-10-05T01:19:26.866Z,10.82
2022-10-05T01:22:01.240Z,12.02
2022-10-05T01:24:33.665Z,9.40
2022-10-05T01:27:02.930Z,8.65
2022-10-05T01:29:31.965Z,10.15
2022-10-05T01:31:58.267Z,11.63
2022-10-05T01:34:30.830Z,13.07
2022-10-05T01:37:19.026Z,10.88
2022-10-05T01:39:48.442Z,14.95
2022-10-05T01:42:24.953Z,13.13
2022-10-05T01:44:57.742Z,10.00
2022-10-05T01:47:23.905Z,10.25
2022-10-05T01:50:04.571Z,13.48
2022-10-05T01:52:45.725Z,10.88
2022-10-05T01:55:18.159Z,11.50
2022-10-05T01:57:50.444Z,14.27
2022-10-05T02:00:17.905Z,10.30
2022-10-05T02:03:02.821Z,11.52
2022-10-05T02:05:33.139Z,9.77
2022-10-05T02:08:07.863Z,11.30
2022-10-05T02:10:49.699Z,9.98
2022-10-05T02:13:19.533Z,12.38
2022-10-05T02:15:49.234Z,10.63
2022-10-05T02:18:21.014Z,10.35
2022-10-05T02:20:47.770Z,11.25
2022-10-05T02:23:19.198Z,10.65
2022-10-05T02:25:47.273Z,10.20
2022-10-05T02:28:25.684Z,12.90
2022-10-05T02:30:58.513Z,13.63
2022-10-05T02:33:31.759Z,13.65
2022-10-05T02:36:15.842Z,12.57
2022-10-05T02:38:51.146Z,10.30
2022-10-05T02:41:23.138Z,12.10
2022-10-05T02:44:07.968Z,10.65
2022-10-05T02:46:44.494Z,13.55
2022-10-05T02:49:13.985Z,13.30
2022-10-05T02:51:49.288Z,11.93
2022-10-05T02:54:21.301Z,12.38
2022-10-05T02:56:51.513Z,12.38
2022-10-05T02:59:26.349Z,11.60
2022-10-05T03:01:55.700Z,12.15
2022-10-05T03:04:40.866Z,11.45
2022-10-05T03:07:19.355Z,11.77
2022-10-05T03:09:49.493Z,12.50
2022-10-05T03:12:38.814Z,13.32
2022-10-05T03:15:08.058Z,14.52
2022-10-05T03:17:45.007Z,13.82
2022-10-05T03:20:26.879Z,10.38
2022-10-05T03:22:58.245Z,13.32
2022-10-05T03:25:47.536Z,13.43
2022-10-05T03:28:16.766Z,11.18
2022-10-05T03:31:01.737Z,11.65
2022-10-05T03:33:28.652Z,11.27
2022-10-05T03:35:57.577Z,11.98
2022-10-05T03:38:36.271Z,13.15
2022-10-05T03:41:10.962Z,15.43
2022-10-05T03:43:46.322Z,15.05
2022-10-05T03:46:18.143Z,11.85
2022-10-05T03:48:51.776Z,13.52
2022-10-05T03:51:23.855Z,14.13
2022-10-05T03:53:53.097Z,14.73
2022-10-05T03:56:23.244Z,13.02
2022-10-05T03:58:55.725Z,13.60
2022-10-05T04:01:39.625Z,14.02
2022-10-05T04:04:09.595Z,13.60
2022-10-05T04:06:38.892Z,14.23
2022-10-05T04:09:15.156Z,12.82
2022-10-05T04:12:01.789Z,15.75
2022-10-05T04:14:36.879Z,15.13
2022-10-05T04:17:05.838Z,11.68
2022-10-05T04:19:40.908Z,15.25
2022-10-05T04:22:14.378Z,13.48
2022-10-05T04:24:44.120Z,13.35
2022-10-05T04:27:16.583Z,13.20
2022-10-05T04:29:49.680Z,14.80
2022-10-05T04:32:15.836Z,12.40
2022-10-05T04:35:02.996Z,15.05
2022-10-05T04:37:35.012Z,13.85
2022-10-05T04:40:09.716Z,14.85
2022-10-05T04:42:38.093Z,14.95
2022-10-05T04:45:07.128Z,10.68
2022-10-05T04:47:47.547Z,13.43
2022-10-05T04:50:19.834Z,14.38
2022-10-05T04:52:59.551Z,26.20
2022-10-05T04:55:37.757Z,12.27
2022-10-05T04:58:04.997Z,14.90
2022-10-05T05:00:45.895Z,13.60
2022-10-05T05:03:18.341Z,12.88
2022-10-05T05:06:16.282Z,10.85
2022-10-05T05:09:04.614Z,13.10
2022-10-05T05:11:40.051Z,12.73
2022-10-05T05:14:14.261Z,12.10
2022-10-05T05:16:41.613Z,10.60
2022-10-05T05:19:26.502Z,12.77
2022-10-05T05:22:11.308Z,16.05
2022-10-05T05:24:56.810Z,11.68
2022-10-05T05:27:33.024Z,10.57
2022-10-05T05:30:14.266Z,10.70
2022-10-05T05:32:40.446Z,12.60
2022-10-05T05:35:12.839Z,12.70
2022-10-05T05:37:44.254Z,12.10
2022-10-05T05:40:15.577Z,15.95
2022-10-05T05:43:00.367Z,16.75
2022-10-05T05:45:26.567Z,15.95
2022-10-05T05:47:54.247Z,14.15
2022-10-05T05:50:27.860Z,12.13
2022-10-05T05:52:58.538Z,12.35
2022-10-05T05:55:45.703Z,10.87
2022-10-05T05:58:17.257Z,12.23
2022-10-05T06:03:22.716Z,10.00
2022-10-05T06:05:52.109Z,11.80
2022-10-05T06:08:23.888Z,15.32
2022-10-05T06:10:55.185Z,12.23
2022-10-05T06:13:26.384Z,8.88
2022-10-05T06:16:12.950Z,9.75
2022-10-05T06:18:41.032Z,10.63
2022-10-05T06:21:15.727Z,9.23
2022-10-05T06:23:48.567Z,9.00
2022-10-05T06:26:20.171Z,9.85
2022-10-05T06:31:31.161Z,13.50
2022-10-05T06:34:06.228Z,9.55
2022-10-05T06:36:38.180Z,8.35
2022-10-05T06:39:10.261Z,9.80
2022-10-05T06:41:39.205Z,8.77
2022-10-05T06:44:08.199Z,11.02
2022-10-05T06:46:39.535Z,10.00
2022-10-05T06:49:11.394Z,8.73
2022-10-05T06:51:41.334Z,9.32
2022-10-05T06:54:14.048Z,9.40
2022-10-05T06:56:50.406Z,8.63
2022-10-05T06:59:28.566Z,7.95
2022-10-05T07:01:54.788Z,10.13
2022-10-05T07:04:36.628Z,7.70
2022-10-05T07:07:08.776Z,8.10
2022-10-05T07:09:52.502Z,9.30
2022-10-05T07:12:37.433Z,8.50
2022-10-05T07:15:22.010Z,13.25
2022-10-05T07:17:57.619Z,7.47
2022-10-05T07:20:30.209Z,6.72
2022-10-05T07:23:08.773Z,8.98
2022-10-05T07:25:36.619Z,8.10
2022-10-05T07:28:07.654Z,9.52
2022-10-05T07:30:52.832Z,8.13
2022-10-05T07:33:25.348Z,9.73
2022-10-05T07:36:17.311Z,11.15
2022-10-05T07:38:51.069Z,6.93
2022-10-05T07:41:22.849Z,6.63
2022-10-05T07:44:12.701Z,7.63
2022-10-05T07:46:46.621Z,7.13
2022-10-05T07:49:31.532Z,10.35
2022-10-05T07:52:02.692Z,10.07
2022-10-05T07:54:44.160Z,9.75
2022-10-05T07:57:19.336Z,10.73
2022-10-05T07:59:56.674Z,9.82
2022-10-05T08:02:32.945Z,9.00
2022-10-05T08:05:05.220Z,10.77
2022-10-05T08:07:33.435Z,8.88
2022-10-05T08:10:14.979Z,8.95
2022-10-05T08:12:54.915Z,8.82
2022-10-05T08:15:23.191Z,10.05
2022-10-05T08:17:52.497Z,9.38
2022-10-05T08:20:18.683Z,9.23
2022-10-05T08:22:51.964Z,10.63
2022-10-05T08:25:21.992Z,10.35
2022-10-05T08:27:51.914Z,9.93
2022-10-05T08:30:18.984Z,12.05
2022-10-05T08:32:55.128Z,8.57
2022-10-05T08:35:21.272Z,8.30
2022-10-05T08:37:48.096Z,9.65
2022-10-05T08:40:26.158Z,8.27
2022-10-05T08:43:11.194Z,8.88
2022-10-05T08:45:43.421Z,9.23
2022-10-05T08:48:14.937Z,10.88
2022-10-05T08:50:59.682Z,12.05
2022-10-05T08:53:44.924Z,10.05
2022-10-05T08:56:19.061Z,9.65
2022-10-05T08:58:51.991Z,10.00
2022-10-05T09:01:20.624Z,7.93
2022-10-05T09:03:59.919Z,10.10
2022-10-05T09:06:45.158Z,8.52
2022-10-05T09:09:29.963Z,11.23
2022-10-05T09:12:27.410Z,11.00
2022-10-05T09:15:25.361Z,10.80
2022-10-05T09:18:11.164Z,9.45
2022-10-05T09:20:53.773Z,12.30
2022-10-05T09:23:43.019Z,9.52
2022-10-05T09:26:09.227Z,9.50
2022-10-05T09:28:55.426Z,10.52
2022-10-05T09:31:33.023Z,7.90
2022-10-05T09:34:02.215Z,8.07
2022-10-05T09:36:48.385Z,8.40
2022-10-05T09:39:17.750Z,5.30
2022-10-05T09:42:10.283Z,6.70
2022-10-05T09:44:40.524Z,7.22
2022-10-05T09:47:12.924Z,6.53
2022-10-05T09:49:42.000Z,6.00
2022-10-05T09:52:13.926Z,6.85
2022-10-05T09:55:02.793Z,5.20
2022-10-05T09:57:49.359Z,6.82
2022-10-05T10:00:20.948Z,5.60
2022-10-05T10:03:02.369Z,7.32
2022-10-05T10:05:41.026Z,5.70
2022-10-05T10:08:25.869Z,4.50
2022-10-05T10:10:52.764Z,4.55
2022-10-05T10:13:31.364Z,5.72
2022-10-05T10:16:04.179Z,4.10
2022-10-05T10:18:42.804Z,4.85
2022-10-05T10:21:18.143Z,4.00
2022-10-05T10:23:44.314Z,4.88
2022-10-05T10:26:30.318Z,4.35
2022-10-05T10:29:15.416Z,3.42
2022-10-05T10:31:46.992Z,5.40
2022-10-05T10:34:20.324Z,3.65
2022-10-05T10:37:06.050Z,3.50
2022-10-05T10:39:47.216Z,4.50
2022-10-05T10:42:26.802Z,3.67
2022-10-05T10:45:22.877Z,3.65
2022-10-05T10:48:03.203Z,5.88
2022-10-05T10:50:44.367Z,2.83
2022-10-05T10:53:10.573Z,2.03
2022-10-05T10:55:55.578Z,2.17
2022-10-05T10:58:43.771Z,3.55
2022-10-05T11:01:19.200Z,3.75
2022-10-05T11:03:45.469Z,3.50
2022-10-05T11:06:33.869Z,3.60
2022-10-05T11:09:09.209Z,3.65
2022-10-05T11:11:54.434Z,4.68
2022-10-05T11:14:39.424Z,2.22
2022-10-05T11:17:05.591Z,3.95
2022-10-05T11:20:02.484Z,2.60
2022-10-05T11:22:35.759Z,2.28
2022-10-05T11:25:07.885Z,2.70
2022-10-05T11:27:37.135Z,2.10
2022-10-05T11:30:18.436Z,1.60
2022-10-05T11:32:50.504Z,2.28
2022-10-05T11:35:29.678Z,1.88
2022-10-05T11:38:08.605Z,1.70
2022-10-05T11:40:53.833Z,1.52
2022-10-05T11:43:38.815Z,1.50
2022-10-05T11:46:10.498Z,1.80
2022-10-05T11:48:36.768Z,1.45
2022-10-05T11:51:25.232Z,2.03
2022-10-05T11:54:02.403Z,2.53
2022-10-05T11:59:26.539Z,2.70
2022-10-05T12:02:01.945Z,1.33
2022-10-05T12:04:40.390Z,1.48
2022-10-05T12:07:17.427Z,1.48
2022-10-05T12:10:14.847Z,1.88
2022-10-05T12:12:51.721Z,1.50
2022-10-05T12:15:23.712Z,11.68
2022-10-05T12:18:25.318Z,2.50
2022-10-05T12:20:58.843Z,2.03
2022-10-05T12:23:33.385Z,2.15
2022-10-05T12:26:20.423Z,4.28
2022-10-05T12:28:51.547Z,2.38
2022-10-05T12:31:17.789Z,3.47
2022-10-05T12:33:50.186Z,3.80
2022-10-05T12:36:52.414Z,2.47
2022-10-05T12:39:20.022Z,2.85
2022-10-05T12:42:04.927Z,2.65
2022-10-05T12:44:42.895Z,15.85
2022-10-05T12:47:17.412Z,9.60
2022-10-05T12:49:55.476Z,11.85
2022-10-05T12:52:43.204Z,9.55
2022-10-05T12:55:13.139Z,4.70
2022-10-05T12:58:05.308Z,2.95
2022-10-05T13:00:33.317Z,2.20
2022-10-05T13:03:01.706Z,2.13
2022-10-05T13:05:35.646Z,4.78
2022-10-05T13:08:04.856Z,3.53
2022-10-05T13:10:31.073Z,4.80
2022-10-05T13:13:15.847Z,2.17
2022-10-05T13:15:49.898Z,1.85
2022-10-05T13:18:32.848Z,2.70
2022-10-05T13:21:05.755Z,5.97
2022-10-05T13:23:31.951Z,3.15
2022-10-05T13:26:08.878Z,3.67
2022-10-05T13:28:41.342Z,5.35
2022-10-05T13:31:16.936Z,4.60
2022-10-05T13:33:50.800Z,2.28
2022-10-05T13:36:35.923Z,4.53
2022-10-05T13:39:15.417Z,2.88
2022-10-05T13:41:50.177Z,2.30
2022-10-05T13:44:32.173Z,2.75
2022-10-05T13:47:03.716Z,2.65
2022-10-05T13:49:36.241Z,1.85
2022-10-05T13:52:08.751Z,2.03
2022-10-05T13:54:53.755Z,2.05
2022-10-05T13:57:21.043Z,3.42
2022-10-05T13:59:53.532Z,6.32
2022-10-05T14:02:22.701Z,3.42
2022-10-05T14:04:50.884Z,3.35
2022-10-05T14:07:23.292Z,3.53
2022-10-05T14:09:50.014Z,2.40
2022-10-05T14:12:20.699Z,2.10
2022-10-05T14:14:54.210Z,2.65
2022-10-05T14:17:29.159Z,3.90
2022-10-05T14:20:02.889Z,2.20
2022-10-05T14:22:29.364Z,2.00
2022-10-05T14:24:56.656Z,2.42
2022-10-05T14:27:25.124Z,2.22
2022-10-05T14:30:01.859Z,2.45
2022-10-05T14:32:32.330Z,2.53
2022-10-05T14:35:13.359Z,3.40
2022-10-05T14:37:44.309Z,2.17
2022-10-05T14:40:39.969Z,2.83
2022-10-05T14:43:15.143Z,2.30
2022-10-05T14:45:56.601Z,4.38
2022-10-05T14:50:56.554Z,2.20
2022-10-05T14:53:24.858Z,4.10
2022-10-05T14:56:10.843Z,2.22
2022-10-05T14:58:56.303Z,2.45
2022-10-05T15:01:26.658Z,2.03
2022-10-05T15:03:59.925Z,4.22
2022-10-05T15:06:34.336Z,2.88
2022-10-05T15:09:16.474Z,4.35
2022-10-05T15:11:54.322Z,3.70
2022-10-05T15:14:27.068Z,2.65
2022-10-05T15:16:54.299Z,3.00
2022-10-05T15:19:20.768Z,4.95
2022-10-05T15:21:55.073Z,2.33
2022-10-05T15:24:24.131Z,4.45
2022-10-05T15:26:52.879Z,2.80
2022-10-05T15:29:27.457Z,2.50
2022-10-05T15:32:03.560Z,2.67
2022-10-05T15:34:38.808Z,2.22
2022-10-05T15:37:07.071Z,2.58
2022-10-05T15:39:52.056Z,5.57
2022-10-05T15:42:20.339Z,1.90
2022-10-05T15:44:46.656Z,5.03
2022-10-05T15:47:18.876Z,5.50
2022-10-05T15:50:03.617Z,4.30
2022-10-05T15:52:47.944Z,3.60
2022-10-05T15:55:14.114Z,2.60
2022-10-05T15:57:46.393Z,3.55
2022-10-05T16:00:13.649Z,3.15
2022-10-05T16:02:55.118Z,2.72
2022-10-05T16:08:30.482Z,3.17
2022-10-05T16:10:56.880Z,2.72
2022-10-05T16:13:29.261Z,2.55
2022-10-05T16:16:00.431Z,3.15
2022-10-05T16:18:40.601Z,1.98
2022-10-05T16:21:07.347Z,3.53
2022-10-05T16:23:40.761Z,4.70
2022-10-05T16:26:32.481Z,5.35
2022-10-05T16:29:04.099Z,4.03
2022-10-05T16:31:31.004Z,2.95
2022-10-05T16:34:09.396Z,4.57
2022-10-05T16:36:53.708Z,4.65
2022-10-05T16:39:22.913Z,3.05
2022-10-05T16:42:01.203Z,4.78
2022-10-05T16:44:36.948Z,5.78
2022-10-05T16:47:27.148Z,4.65
2022-10-05T16:50:09.205Z,5.22
2022-10-05T16:52:38.063Z,4.78
2022-10-05T16:55:06.578Z,3.88
2022-10-05T16:57:40.773Z,3.15
2022-10-05T17:00:10.831Z,3.13
2022-10-05T17:02:46.801Z,5.00
2022-10-05T17:05:25.959Z,5.20
2022-10-05T17:07:52.969Z,3.03
2022-10-05T17:10:37.681Z,12.68
2022-10-05T17:13:22.024Z,3.13
2022-10-05T17:16:01.214Z,3.97
2022-10-05T17:18:50.636Z,2.70
2022-10-05T17:21:22.186Z,4.15
2022-10-05T17:23:58.568Z,5.72
2022-10-05T17:26:40.070Z,3.20
2022-10-05T17:31:52.341Z,5.82
2022-10-05T17:34:18.561Z,2.47
2022-10-05T17:36:49.810Z,3.58
2022-10-05T17:39:17.340Z,4.03
2022-10-05T17:41:44.128Z,6.45
2022-10-05T17:44:16.351Z,2.92
2022-10-05T17:46:45.545Z,3.50
2022-10-05T17:49:18.426Z,4.05
2022-10-05T17:52:03.589Z,7.82
2022-10-05T17:54:49.983Z,5.00
2022-10-05T17:57:21.662Z,6.65
2022-10-05T17:59:53.929Z,6.38
2022-10-05T18:02:36.238Z,5.82
2022-10-05T18:05:12.323Z,4.47
2022-10-05T18:07:39.297Z,6.40
2022-10-05T18:10:11.591Z,4.90
2022-10-05T18:12:40.290Z,5.40
2022-10-05T18:15:06.518Z,7.00
2022-10-05T18:17:32.681Z,6.15
2022-10-05T18:20:14.680Z,3.53
2022-10-05T18:22:43.134Z,5.40
2022-10-05T18:25:18.349Z,5.45
2022-10-05T18:27:58.246Z,3.92
2022-10-05T18:30:25.433Z,6.13
2022-10-05T18:32:57.848Z,8.32
2022-10-05T18:35:43.402Z,4.10
2022-10-05T18:38:21.625Z,5.43
2022-10-05T18:40:50.627Z,3.92
2022-10-05T18:43:24.415Z,5.85
2022-10-05T18:46:14.577Z,4.78
2022-10-05T18:48:47.588Z,6.50
2022-10-05T18:51:32.365Z,5.53
2022-10-05T18:54:18.423Z,4.78
2022-10-05T18:56:44.614Z,3.65
2022-10-05T18:59:30.442Z,6.50
2022-10-05T19:02:22.993Z,5.38
2022-10-05T19:05:42.669Z,4.00
2022-10-05T19:07:59.983Z,5.13
2022-10-05T19:10:45.655Z,4.28
2022-10-05T19:13:19.459Z,4.93
2022-10-05T19:16:04.615Z,3.70
2022-10-05T19:18:41.334Z,3.58
2022-10-05T19:21:25.066Z,3.63
2022-10-05T19:24:01.569Z,5.07
2022-10-05T19:26:27.765Z,3.95
2022-10-05T19:29:06.990Z,3.10
2022-10-05T19:31:39.939Z,2.88
2022-10-05T19:34:16.562Z,3.08
2022-10-05T19:36:43.810Z,3.60
2022-10-05T19:39:13.373Z,3.80
2022-10-05T19:41:55.850Z,4.68
2022-10-05T19:44:35.298Z,2.65
2022-10-05T19:47:17.398Z,3.20
2022-10-05T19:49:48.774Z,2.75
2022-10-05T19:52:20.985Z,3.58
2022-10-05T19:54:49.565Z,3.72
2022-10-05T19:57:17.736Z,3.85
2022-10-05T19:59:47.674Z,4.90
2022-10-05T20:02:15.038Z,2.85
2022-10-05T20:04:43.016Z,4.85
2022-10-05T20:07:17.097Z,2.70
2022-10-05T20:09:52.564Z,3.22
2022-10-05T20:12:18.963Z,4.05
2022-10-05T20:15:04.088Z,2.45
2022-10-05T20:17:49.133Z,4.28
2022-10-05T20:20:22.642Z,3.55
2022-10-05T20:22:48.893Z,4.88
2022-10-05T20:25:18.586Z,3.35
2022-10-05T20:27:46.579Z,3.80
2022-10-05T20:30:15.873Z,3.33
2022-10-05T20:32:43.540Z,2.30
2022-10-05T20:35:10.303Z,2.92
2022-10-05T20:37:36.824Z,3.72
2022-10-05T20:40:03.935Z,3.45
2022-10-05T20:42:30.191Z,4.53
2022-10-05T20:44:57.769Z,4.32
2022-10-05T20:47:24.320Z,2.67
2022-10-05T20:49:50.555Z,3.03
2022-10-05T20:52:16.866Z,2.20
2022-10-05T20:54:43.139Z,4.15
2022-10-05T20:57:09.780Z,2.25
2022-10-05T20:59:36.375Z,4.85
2022-10-05T21:02:03.867Z,3.72
2022-10-05T21:04:40.388Z,2.67
2022-10-05T21:07:06.990Z,6.03
2022-10-05T21:09:33.377Z,3.92
2022-10-05T21:11:59.788Z,4.80
2022-10-05T21:14:30.338Z,4.60
2022-10-05T21:16:56.574Z,3.10
2022-10-05T21:19:22.859Z,4.25
2022-10-05T21:21:49.150Z,3.13
2022-10-05T21:24:15.462Z,2.63
2022-10-05T21:26:42.283Z,4.97
2022-10-05T21:29:12.462Z,3.95
2022-10-05T21:31:39.629Z,2.60
2022-10-05T21:34:06.004Z,4.38
2022-10-05T21:36:32.752Z,4.75
2022-10-05T21:38:59.041Z,3.90
2022-10-05T21:41:25.275Z,10.00
2022-10-05T21:43:51.595Z,5.60
2022-10-05T21:46:20.140Z,4.40
2022-10-05T21:48:47.976Z,5.07
2022-10-05T21:51:16.548Z,4.85
2022-10-05T21:53:45.662Z,6.20
2022-10-05T21:56:14.187Z,4.22
2022-10-05T21:58:42.427Z,4.57
2022-10-05T22:01:09.038Z,3.85
2022-10-05T22:03:35.340Z,3.08
2022-10-05T22:06:03.585Z,4.80
2022-10-05T22:08:31.439Z,5.63
2022-10-05T22:10:58.790Z,5.70
2022-10-05T22:13:26.118Z,6.63
2022-10-05T22:15:55.210Z,4.68
2022-10-05T22:18:22.173Z,16.83
2022-10-05T22:20:48.478Z,7.55
2022-10-05T22:23:14.722Z,3.10
2022-10-05T22:25:41.102Z,4.38
2022-10-05T22:28:09.044Z,3.40
2022-10-05T22:30:35.734Z,1.83
2022-10-05T22:33:02.117Z,1.48
2022-10-05T22:35:28.370Z,2.78
2022-10-05T22:37:54.797Z,3.63
2022-10-05T22:40:21.145Z,2.80
2022-10-05T22:42:47.378Z,2.65
2022-10-05T22:45:14.184Z,2.47
2022-10-05T22:47:42.213Z,6.13
2022-10-05T22:50:09.257Z,2.28
2022-10-05T22:52:35.505Z,3.15
2022-10-05T22:55:02.031Z,2.15
2022-10-05T22:57:28.258Z,3.72
2022-10-05T22:59:54.461Z,3.03
2022-10-05T23:02:20.715Z,4.07
2022-10-05T23:04:46.992Z,3.50
2022-10-05T23:07:13.208Z,2.83
2022-10-05T23:09:39.538Z,2.47
2022-10-05T23:12:05.905Z,2.67
2022-10-05T23:14:33.169Z,3.25
2022-10-05T23:16:59.445Z,2.65
2022-10-05T23:19:25.820Z,3.70
2022-10-05T23:21:52.133Z,4.03
2022-10-05T23:24:18.434Z,2.60
2022-10-05T23:26:44.663Z,4.78
2022-10-05T23:29:11.489Z,2.00
2022-10-05T23:31:37.696Z,3.17
2022-10-05T23:34:04.017Z,2.53
2022-10-05T23:36:33.620Z,1.88
2022-10-05T23:39:00.059Z,3.22
2022-10-05T23:41:26.293Z,1.92
2022-10-05T23:43:55.073Z,3.13
2022-10-05T23:46:21.377Z,3.85
2022-10-05T23:48:48.892Z,2.65
2022-10-05T23:51:15.740Z,3.00
2022-10-05T23:53:42.035Z,0.82
2022-10-05T23:56:08.558Z,2.22
2022-10-05T23:58:34.783Z,3.80
